ANA553 RJTT-RJCH
Flight info
| Callsign | ANA553 |
|---|---|
| Flight time | 1h 1m |
| Altitude | 37000 |
| Route | BRUCE AGRIS Y11 YTE Y113 TAXIR |
| Aircraft | B772/H-SDE2FGILORVWX/LB1 |
Departure
| Time | 2026-04-26 13:34 |
|---|---|
| Airport | Tokyo Haneda International Airport (RJTT) |
Arrival
| Time | 2026-04-26 14:35 |
|---|---|
| Airport | Hakodate Airport (RJCH) |
| Time | Latitude | Longitude | Altitude | Speed | Heading |
|---|---|---|---|---|---|
| 2026-04-26 13:10 | 35.55554 | 139.78741 | 32 ft | 0 kts | 160° |
| 2026-04-26 13:23 | 35.55573 | 139.78730 | 31 ft | 4 kts | 132° |
| 2026-04-26 13:24 | 35.55589 | 139.78711 | 31 ft | 4 kts | 152° |
| 2026-04-26 13:24 | 35.55613 | 139.78703 | 29 ft | 4 kts | 197° |
| 2026-04-26 13:24 | 35.55633 | 139.78720 | 30 ft | 4 kts | 235° |
| 2026-04-26 13:24 | 35.55646 | 139.78747 | 31 ft | 4 kts | 240° |
| 2026-04-26 13:25 | 35.55660 | 139.78775 | 30 ft | 4 kts | 239° |
| 2026-04-26 13:25 | 35.55674 | 139.78804 | 28 ft | 4 kts | 239° |
| 2026-04-26 13:25 | 35.55687 | 139.78831 | 28 ft | 4 kts | 238° |
| 2026-04-26 13:25 | 35.55703 | 139.78855 | 28 ft | 4 kts | 213° |
| 2026-04-26 13:26 | 35.55727 | 139.78867 | 28 ft | 4 kts | 181° |
| 2026-04-26 13:26 | 35.55754 | 139.78863 | 28 ft | 4 kts | 159° |
| 2026-04-26 13:26 | 35.55777 | 139.78849 | 27 ft | 3 kts | 150° |
| 2026-04-26 13:26 | 35.55779 | 139.78847 | 28 ft | 0 kts | 150° |
| 2026-04-26 13:28 | 35.55779 | 139.78848 | 28 ft | 2 kts | 150° |
| 2026-04-26 13:29 | 35.55712 | 139.78895 | 29 ft | 13 kts | 150° |
| 2026-04-26 13:29 | 35.55659 | 139.78934 | 29 ft | 13 kts | 149° |
| 2026-04-26 13:29 | 35.55554 | 139.79010 | 30 ft | 13 kts | 151° |
| 2026-04-26 13:29 | 35.55474 | 139.79065 | 30 ft | 13 kts | 150° |
| 2026-04-26 13:30 | 35.55390 | 139.79123 | 31 ft | 18 kts | 150° |
| 2026-04-26 13:30 | 35.55258 | 139.79216 | 31 ft | 23 kts | 150° |
| 2026-04-26 13:30 | 35.55126 | 139.79311 | 29 ft | 20 kts | 149° |
| 2026-04-26 13:30 | 35.55005 | 139.79397 | 31 ft | 20 kts | 150° |
| 2026-04-26 13:31 | 35.54884 | 139.79483 | 32 ft | 20 kts | 149° |
| 2026-04-26 13:31 | 35.54763 | 139.79570 | 29 ft | 20 kts | 150° |
| 2026-04-26 13:31 | 35.54641 | 139.79655 | 28 ft | 20 kts | 150° |
| 2026-04-26 13:31 | 35.54519 | 139.79740 | 27 ft | 20 kts | 149° |
| 2026-04-26 13:32 | 35.54398 | 139.79827 | 29 ft | 20 kts | 150° |
| 2026-04-26 13:32 | 35.54277 | 139.79913 | 29 ft | 20 kts | 150° |
| 2026-04-26 13:32 | 35.54161 | 139.79998 | 30 ft | 18 kts | 141° |
| 2026-04-26 13:32 | 35.54162 | 139.80105 | 26 ft | 12 kts | 60° |
| 2026-04-26 13:33 | 35.54202 | 139.80183 | 27 ft | 11 kts | 58° |
| 2026-04-26 13:33 | 35.54247 | 139.80271 | 31 ft | 14 kts | 49° |
| 2026-04-26 13:33 | 35.54297 | 139.80281 | 32 ft | 0 kts | 331° |
| 2026-04-26 13:33 | 35.54409 | 139.80203 | 31 ft | 52 kts | 330° |
| 2026-04-26 13:34 | 35.54993 | 139.79786 | 35 ft | 140 kts | 330° |
| 2026-04-26 13:34 | 35.55959 | 139.79085 | 599 ft | 166 kts | 329° |
| 2026-04-26 13:34 | 35.56939 | 139.78406 | 1767 ft | 162 kts | 336° |
| 2026-04-26 13:34 | 35.57282 | 139.78246 | 2079 ft | 164 kts | 345° |
| 2026-04-26 13:35 | 35.59000 | 139.78946 | 2921 ft | 166 kts | 63° |
| 2026-04-26 13:35 | 35.59508 | 139.80222 | 3423 ft | 172 kts | 66° |
| 2026-04-26 13:35 | 35.60134 | 139.81610 | 3710 ft | 200 kts | 64° |
| 2026-04-26 13:35 | 35.60838 | 139.83182 | 3902 ft | 224 kts | 71° |
| 2026-04-26 13:36 | 35.61046 | 139.85134 | 4076 ft | 242 kts | 95° |
| 2026-04-26 13:36 | 35.60975 | 139.87316 | 4556 ft | 259 kts | 93° |
| 2026-04-26 13:36 | 35.60951 | 139.89531 | 5300 ft | 266 kts | 93° |
| 2026-04-26 13:36 | 35.60947 | 139.91832 | 5936 ft | 272 kts | 88° |
| 2026-04-26 13:37 | 35.61485 | 139.94079 | 6413 ft | 281 kts | 59° |
| 2026-04-26 13:37 | 35.62896 | 139.95732 | 6924 ft | 286 kts | 28° |
| 2026-04-26 13:37 | 35.64818 | 139.96338 | 7417 ft | 287 kts | 3° |
| 2026-04-26 13:37 | 35.66120 | 139.96397 | 7760 ft | 289 kts | 2° |
| 2026-04-26 13:38 | 35.67460 | 139.96469 | 8108 ft | 294 kts | 2° |
| 2026-04-26 13:38 | 35.69528 | 139.96597 | 8628 ft | 299 kts | 2° |
| 2026-04-26 13:38 | 35.71281 | 139.96708 | 9052 ft | 301 kts | 2° |
| 2026-04-26 13:38 | 35.73369 | 139.96794 | 9501 ft | 296 kts | 355° |
| 2026-04-26 13:39 | 35.75337 | 139.96169 | 9926 ft | 293 kts | 336° |
| 2026-04-26 13:39 | 35.77255 | 139.95196 | 10428 ft | 302 kts | 336° |
| 2026-04-26 13:39 | 35.79215 | 139.94245 | 10878 ft | 303 kts | 337° |
| 2026-04-26 13:39 | 35.80892 | 139.93444 | 11253 ft | 304 kts | 336° |
| 2026-04-26 13:40 | 35.82200 | 139.92824 | 11553 ft | 305 kts | 336° |
| 2026-04-26 13:40 | 35.84178 | 139.91889 | 12059 ft | 303 kts | 336° |
| 2026-04-26 13:40 | 35.86147 | 139.90963 | 12617 ft | 303 kts | 336° |
| 2026-04-26 13:40 | 35.88146 | 139.90022 | 13182 ft | 316 kts | 336° |
| 2026-04-26 13:41 | 35.90260 | 139.89021 | 13770 ft | 335 kts | 336° |
| 2026-04-26 13:41 | 35.92498 | 139.87964 | 14385 ft | 353 kts | 336° |
| 2026-04-26 13:41 | 35.94826 | 139.86868 | 15250 ft | 362 kts | 335° |
| 2026-04-26 13:41 | 35.97200 | 139.85798 | 16203 ft | 363 kts | 340° |
| 2026-04-26 13:42 | 35.99770 | 139.85528 | 16874 ft | 384 kts | 5° |
| 2026-04-26 13:42 | 36.02355 | 139.86468 | 17669 ft | 391 kts | 19° |
| 2026-04-26 13:42 | 36.04801 | 139.87667 | 18312 ft | 402 kts | 19° |
| 2026-04-26 13:42 | 36.07426 | 139.88940 | 19175 ft | 408 kts | 19° |
| 2026-04-26 13:43 | 36.10078 | 139.90212 | 20106 ft | 410 kts | 18° |
| 2026-04-26 13:43 | 36.12763 | 139.91485 | 20985 ft | 415 kts | 17° |
| 2026-04-26 13:43 | 36.15442 | 139.92741 | 21774 ft | 420 kts | 16° |
| 2026-04-26 13:43 | 36.18194 | 139.94028 | 22530 ft | 425 kts | 15° |
| 2026-04-26 13:44 | 36.21032 | 139.95000 | 23149 ft | 422 kts | 360° |
| 2026-04-26 13:44 | 36.23927 | 139.94990 | 23805 ft | 416 kts | 350° |
| 2026-04-26 13:44 | 36.26839 | 139.94796 | 24566 ft | 421 kts | 350° |
| 2026-04-26 13:44 | 36.29782 | 139.94638 | 25344 ft | 427 kts | 350° |
| 2026-04-26 13:45 | 36.32778 | 139.94516 | 25986 ft | 435 kts | 351° |
| 2026-04-26 13:45 | 36.35837 | 139.94419 | 26578 ft | 444 kts | 351° |
| 2026-04-26 13:45 | 36.38951 | 139.94333 | 27191 ft | 451 kts | 350° |
| 2026-04-26 13:45 | 36.42112 | 139.94245 | 27775 ft | 459 kts | 350° |
| 2026-04-26 13:46 | 36.45325 | 139.94155 | 28351 ft | 465 kts | 350° |
| 2026-04-26 13:46 | 36.48570 | 139.94059 | 28909 ft | 471 kts | 349° |
| 2026-04-26 13:46 | 36.51875 | 139.94110 | 29326 ft | 484 kts | 359° |
| 2026-04-26 13:46 | 36.55213 | 139.94782 | 29526 ft | 488 kts | 358° |
| 2026-04-26 13:47 | 36.58614 | 139.95038 | 29943 ft | 488 kts | 352° |
| 2026-04-26 13:47 | 36.62010 | 139.95043 | 30551 ft | 489 kts | 350° |
| 2026-04-26 13:47 | 36.65425 | 139.95035 | 31145 ft | 493 kts | 350° |
| 2026-04-26 13:47 | 36.68858 | 139.95102 | 31753 ft | 496 kts | 352° |
| 2026-04-26 13:48 | 36.72324 | 139.95256 | 32286 ft | 500 kts | 353° |
| 2026-04-26 13:48 | 36.75803 | 139.95457 | 32804 ft | 501 kts | 353° |
| 2026-04-26 13:48 | 36.79296 | 139.95683 | 33225 ft | 506 kts | 353° |
| 2026-04-26 13:48 | 36.82804 | 139.95925 | 33740 ft | 507 kts | 353° |
| 2026-04-26 13:49 | 36.86319 | 139.96173 | 34216 ft | 507 kts | 354° |
| 2026-04-26 13:49 | 36.89864 | 139.96681 | 34529 ft | 521 kts | 360° |
| 2026-04-26 13:49 | 36.93450 | 139.97588 | 35033 ft | 527 kts | 3° |
| 2026-04-26 13:49 | 36.96909 | 139.98573 | 35793 ft | 520 kts | 3° |
| 2026-04-26 13:50 | 37.00433 | 139.99522 | 36238 ft | 520 kts | 1° |
| 2026-04-26 13:50 | 37.03988 | 140.00440 | 36655 ft | 522 kts | 1° |
| 2026-04-26 13:50 | 37.07531 | 140.01360 | 37160 ft | 519 kts | 1° |
| 2026-04-26 13:51 | 37.14500 | 140.03192 | 37061 ft | 504 kts | 0° |
| 2026-04-26 13:51 | 37.21308 | 140.04936 | 37097 ft | 503 kts | 360° |
| 2026-04-26 13:52 | 37.28176 | 140.06739 | 37073 ft | 506 kts | 0° |
| 2026-04-26 13:52 | 37.35077 | 140.08511 | 37076 ft | 508 kts | 360° |
| 2026-04-26 13:53 | 37.42022 | 140.10260 | 37071 ft | 511 kts | 0° |
| 2026-04-26 13:53 | 37.49015 | 140.12125 | 37081 ft | 514 kts | 1° |
| 2026-04-26 13:54 | 37.56012 | 140.13974 | 37053 ft | 512 kts | 359° |
| 2026-04-26 13:54 | 37.63007 | 140.15727 | 37046 ft | 514 kts | 359° |
| 2026-04-26 13:55 | 37.72319 | 140.18152 | 37068 ft | 514 kts | 0° |
| 2026-04-26 13:56 | 37.83995 | 140.21241 | 37066 ft | 512 kts | 1° |
| 2026-04-26 13:56 | 37.90918 | 140.23159 | 37067 ft | 508 kts | 359° |
| 2026-04-26 13:57 | 37.97836 | 140.24940 | 37059 ft | 507 kts | 359° |
| 2026-04-26 13:57 | 38.04746 | 140.26732 | 37040 ft | 508 kts | 359° |
| 2026-04-26 13:58 | 38.11620 | 140.28524 | 37014 ft | 508 kts | 359° |
| 2026-04-26 13:58 | 38.18573 | 140.30387 | 37062 ft | 514 kts | 360° |
| 2026-04-26 13:59 | 38.25547 | 140.32299 | 37037 ft | 510 kts | 359° |
| 2026-04-26 13:59 | 38.32492 | 140.34087 | 37034 ft | 511 kts | 359° |
| 2026-04-26 14:00 | 38.46425 | 140.37014 | 37025 ft | 501 kts | 353° |
| 2026-04-26 14:01 | 38.53345 | 140.37937 | 37032 ft | 499 kts | 352° |
| 2026-04-26 14:01 | 38.60249 | 140.38901 | 37023 ft | 498 kts | 353° |
| 2026-04-26 14:02 | 38.67121 | 140.39904 | 37028 ft | 496 kts | 353° |
| 2026-04-26 14:02 | 38.73974 | 140.40908 | 37026 ft | 495 kts | 352° |
| 2026-04-26 14:03 | 38.80820 | 140.41915 | 37033 ft | 494 kts | 352° |
| 2026-04-26 14:03 | 38.87651 | 140.42916 | 37029 ft | 494 kts | 352° |
| 2026-04-26 14:04 | 38.94480 | 140.43919 | 37024 ft | 494 kts | 352° |
| 2026-04-26 14:04 | 39.01316 | 140.44931 | 37028 ft | 494 kts | 352° |
| 2026-04-26 14:05 | 39.08146 | 140.45943 | 37020 ft | 493 kts | 352° |
| 2026-04-26 14:05 | 39.14958 | 140.46954 | 37024 ft | 493 kts | 352° |
| 2026-04-26 14:06 | 39.21769 | 140.47965 | 37028 ft | 492 kts | 351° |
| 2026-04-26 14:06 | 39.28528 | 140.48968 | 37016 ft | 492 kts | 351° |
| 2026-04-26 14:07 | 39.35368 | 140.49989 | 37018 ft | 491 kts | 351° |
| 2026-04-26 14:07 | 39.42159 | 140.51004 | 37018 ft | 491 kts | 351° |
| 2026-04-26 14:08 | 39.48957 | 140.52021 | 37019 ft | 492 kts | 351° |
| 2026-04-26 14:08 | 39.55749 | 140.53042 | 37011 ft | 491 kts | 351° |
| 2026-04-26 14:09 | 39.62522 | 140.54062 | 36986 ft | 487 kts | 351° |
| 2026-04-26 14:09 | 39.65861 | 140.54568 | 36605 ft | 482 kts | 351° |
| 2026-04-26 14:09 | 39.69188 | 140.55070 | 36163 ft | 479 kts | 351° |
| 2026-04-26 14:09 | 39.72444 | 140.55557 | 35703 ft | 476 kts | 351° |
| 2026-04-26 14:10 | 39.75738 | 140.56035 | 35146 ft | 477 kts | 351° |
| 2026-04-26 14:10 | 39.79032 | 140.56507 | 34640 ft | 476 kts | 351° |
| 2026-04-26 14:10 | 39.82316 | 140.56985 | 34153 ft | 474 kts | 352° |
| 2026-04-26 14:10 | 39.85616 | 140.57465 | 33315 ft | 480 kts | 352° |
| 2026-04-26 14:11 | 39.92294 | 140.58472 | 32030 ft | 481 kts | 354° |
| 2026-04-26 14:11 | 39.95611 | 140.58990 | 31339 ft | 481 kts | 355° |
| 2026-04-26 14:11 | 39.98936 | 140.59480 | 30606 ft | 482 kts | 355° |
| 2026-04-26 14:12 | 40.02266 | 140.59949 | 29976 ft | 479 kts | 355° |
| 2026-04-26 14:12 | 40.05539 | 140.60405 | 29819 ft | 465 kts | 356° |
| 2026-04-26 14:12 | 40.08701 | 140.60853 | 29660 ft | 450 kts | 356° |
| 2026-04-26 14:12 | 40.11709 | 140.61293 | 29182 ft | 419 kts | 356° |
| 2026-04-26 14:13 | 40.17416 | 140.62104 | 28386 ft | 409 kts | 356° |
| 2026-04-26 14:13 | 40.20240 | 140.62501 | 27975 ft | 407 kts | 356° |
| 2026-04-26 14:13 | 40.23045 | 140.62907 | 27562 ft | 405 kts | 356° |
| 2026-04-26 14:14 | 40.25837 | 140.63313 | 27151 ft | 403 kts | 357° |
| 2026-04-26 14:14 | 40.28608 | 140.63723 | 26730 ft | 399 kts | 357° |
| 2026-04-26 14:14 | 40.31363 | 140.64134 | 26309 ft | 397 kts | 358° |
| 2026-04-26 14:14 | 40.34077 | 140.64547 | 25915 ft | 390 kts | 358° |
| 2026-04-26 14:15 | 40.36766 | 140.64947 | 25520 ft | 387 kts | 358° |
| 2026-04-26 14:15 | 40.39445 | 140.65345 | 25134 ft | 388 kts | 358° |
| 2026-04-26 14:15 | 40.42123 | 140.65747 | 24746 ft | 387 kts | 358° |
| 2026-04-26 14:15 | 40.44799 | 140.66158 | 24353 ft | 386 kts | 359° |
| 2026-04-26 14:16 | 40.47456 | 140.66566 | 23954 ft | 384 kts | 359° |
| 2026-04-26 14:16 | 40.50109 | 140.66967 | 23570 ft | 383 kts | 359° |
| 2026-04-26 14:16 | 40.52755 | 140.67360 | 23183 ft | 382 kts | 359° |
| 2026-04-26 14:16 | 40.55392 | 140.67751 | 22784 ft | 381 kts | 359° |
| 2026-04-26 14:17 | 40.58024 | 140.68141 | 22402 ft | 380 kts | 360° |
| 2026-04-26 14:17 | 40.60648 | 140.68529 | 21981 ft | 379 kts | 360° |
| 2026-04-26 14:17 | 40.63264 | 140.68917 | 21592 ft | 378 kts | 0° |
| 2026-04-26 14:17 | 40.65867 | 140.69303 | 21187 ft | 377 kts | 0° |
| 2026-04-26 14:18 | 40.68470 | 140.69690 | 20777 ft | 376 kts | 1° |
| 2026-04-26 14:18 | 40.71062 | 140.70076 | 20359 ft | 375 kts | 1° |
| 2026-04-26 14:18 | 40.73650 | 140.70462 | 19943 ft | 373 kts | 1° |
| 2026-04-26 14:18 | 40.76227 | 140.70813 | 19531 ft | 372 kts | 0° |
| 2026-04-26 14:19 | 40.78799 | 140.71123 | 19102 ft | 370 kts | 0° |
| 2026-04-26 14:19 | 40.81364 | 140.71423 | 18676 ft | 369 kts | 0° |
| 2026-04-26 14:19 | 40.83919 | 140.71723 | 18250 ft | 368 kts | 0° |
| 2026-04-26 14:19 | 40.86465 | 140.72025 | 17825 ft | 367 kts | 1° |
| 2026-04-26 14:20 | 40.88970 | 140.72325 | 17401 ft | 365 kts | 1° |
| 2026-04-26 14:20 | 40.91531 | 140.72633 | 16952 ft | 364 kts | 1° |
| 2026-04-26 14:20 | 40.94046 | 140.72939 | 16525 ft | 362 kts | 1° |
| 2026-04-26 14:20 | 40.96532 | 140.73242 | 16073 ft | 350 kts | 1° |
| 2026-04-26 14:21 | 40.98867 | 140.73530 | 15653 ft | 334 kts | 1° |
| 2026-04-26 14:21 | 41.01207 | 140.73814 | 15257 ft | 333 kts | 1° |
| 2026-04-26 14:21 | 41.03479 | 140.74085 | 14848 ft | 332 kts | 2° |
| 2026-04-26 14:21 | 41.05773 | 140.74359 | 14445 ft | 330 kts | 2° |
| 2026-04-26 14:22 | 41.08057 | 140.74633 | 14033 ft | 330 kts | 2° |
| 2026-04-26 14:22 | 41.10364 | 140.74911 | 13614 ft | 328 kts | 2° |
| 2026-04-26 14:22 | 41.12610 | 140.75184 | 13214 ft | 327 kts | 2° |
| 2026-04-26 14:22 | 41.14869 | 140.75463 | 12794 ft | 325 kts | 3° |
| 2026-04-26 14:23 | 41.17115 | 140.75741 | 12385 ft | 324 kts | 3° |
| 2026-04-26 14:23 | 41.19355 | 140.76018 | 11974 ft | 323 kts | 3° |
| 2026-04-26 14:23 | 41.21584 | 140.76294 | 11578 ft | 321 kts | 3° |
| 2026-04-26 14:23 | 41.23806 | 140.76568 | 11169 ft | 320 kts | 3° |
| 2026-04-26 14:24 | 41.26013 | 140.76842 | 10757 ft | 314 kts | 3° |
| 2026-04-26 14:24 | 41.28102 | 140.77104 | 10343 ft | 290 kts | 3° |
| 2026-04-26 14:24 | 41.30064 | 140.77349 | 10116 ft | 279 kts | 3° |
| 2026-04-26 14:24 | 41.31988 | 140.77586 | 9952 ft | 280 kts | 2° |
| 2026-04-26 14:25 | 41.33956 | 140.77825 | 9606 ft | 288 kts | 3° |
| 2026-04-26 14:25 | 41.35969 | 140.78075 | 9271 ft | 291 kts | 3° |
| 2026-04-26 14:25 | 41.37983 | 140.78326 | 8913 ft | 291 kts | 3° |
| 2026-04-26 14:25 | 41.39994 | 140.78576 | 8549 ft | 291 kts | 3° |
| 2026-04-26 14:26 | 41.42004 | 140.78827 | 8206 ft | 291 kts | 2° |
| 2026-04-26 14:26 | 41.44005 | 140.79021 | 7833 ft | 279 kts | 355° |
| 2026-04-26 14:26 | 41.45822 | 140.78455 | 7503 ft | 266 kts | 335° |
| 2026-04-26 14:26 | 41.46979 | 140.77860 | 7311 ft | 270 kts | 336° |
| 2026-04-26 14:27 | 41.48740 | 140.77004 | 6974 ft | 270 kts | 336° |
| 2026-04-26 14:27 | 41.50521 | 140.76159 | 6638 ft | 271 kts | 337° |
| 2026-04-26 14:27 | 41.52298 | 140.75317 | 6307 ft | 271 kts | 337° |
| 2026-04-26 14:27 | 41.54080 | 140.74477 | 5971 ft | 271 kts | 337° |
| 2026-04-26 14:28 | 41.55859 | 140.73641 | 5632 ft | 271 kts | 337° |
| 2026-04-26 14:28 | 41.57588 | 140.72834 | 5283 ft | 256 kts | 337° |
| 2026-04-26 14:28 | 41.59264 | 140.72050 | 4984 ft | 255 kts | 337° |
| 2026-04-26 14:28 | 41.60937 | 140.71261 | 4666 ft | 255 kts | 337° |
| 2026-04-26 14:29 | 41.62611 | 140.70469 | 4350 ft | 255 kts | 337° |
| 2026-04-26 14:29 | 41.64253 | 140.69694 | 4082 ft | 239 kts | 337° |
| 2026-04-26 14:29 | 41.65734 | 140.69000 | 3961 ft | 213 kts | 337° |
| 2026-04-26 14:29 | 41.67101 | 140.68355 | 3915 ft | 203 kts | 336° |
| 2026-04-26 14:30 | 41.68414 | 140.67734 | 3809 ft | 198 kts | 336° |
| 2026-04-26 14:30 | 41.69672 | 140.67139 | 3738 ft | 186 kts | 336° |
| 2026-04-26 14:30 | 41.70853 | 140.66579 | 3633 ft | 177 kts | 336° |
| 2026-04-26 14:30 | 41.72017 | 140.66026 | 3466 ft | 177 kts | 336° |
| 2026-04-26 14:31 | 41.73164 | 140.65482 | 3268 ft | 174 kts | 336° |
| 2026-04-26 14:31 | 41.74296 | 140.64953 | 3082 ft | 171 kts | 338° |
| 2026-04-26 14:31 | 41.75477 | 140.64666 | 2908 ft | 177 kts | 355° |
| 2026-04-26 14:31 | 41.76706 | 140.64859 | 2686 ft | 179 kts | 14° |
| 2026-04-26 14:32 | 41.77822 | 140.65515 | 2420 ft | 176 kts | 33° |
| 2026-04-26 14:32 | 41.78721 | 140.66586 | 2201 ft | 167 kts | 53° |
| 2026-04-26 14:32 | 41.79315 | 140.67871 | 2015 ft | 162 kts | 67° |
| 2026-04-26 14:32 | 41.79650 | 140.69308 | 1798 ft | 162 kts | 82° |
| 2026-04-26 14:33 | 41.79695 | 140.70782 | 1575 ft | 152 kts | 96° |
| 2026-04-26 14:33 | 41.79491 | 140.72090 | 1386 ft | 136 kts | 107° |
| 2026-04-26 14:33 | 41.79205 | 140.73263 | 1215 ft | 130 kts | 108° |
| 2026-04-26 14:33 | 41.78927 | 140.74397 | 1037 ft | 128 kts | 108° |
| 2026-04-26 14:34 | 41.78644 | 140.75548 | 884 ft | 131 kts | 107° |
| 2026-04-26 14:34 | 41.78352 | 140.76718 | 695 ft | 134 kts | 106° |
| 2026-04-26 14:34 | 41.78061 | 140.77917 | 512 ft | 137 kts | 106° |
| 2026-04-26 14:34 | 41.77769 | 140.79121 | 335 ft | 136 kts | 107° |
| 2026-04-26 14:35 | 41.77473 | 140.80320 | 189 ft | 135 kts | 106° |
| 2026-04-26 14:35 | 41.77196 | 140.81476 | 112 ft | 118 kts | 109° |
| 2026-04-26 14:35 | 41.76991 | 140.82313 | 126 ft | 60 kts | 108° |
| 2026-04-26 14:35 | 41.76911 | 140.82643 | 130 ft | 25 kts | 107° |
| 2026-04-26 14:36 | 41.76962 | 140.82784 | 136 ft | 18 kts | 27° |
| 2026-04-26 14:36 | 41.77058 | 140.82733 | 137 ft | 18 kts | 293° |
| 2026-04-26 14:36 | 41.77103 | 140.82561 | 130 ft | 21 kts | 288° |
| 2026-04-26 14:36 | 41.77150 | 140.82363 | 122 ft | 24 kts | 288° |
| 2026-04-26 14:37 | 41.77202 | 140.82152 | 118 ft | 24 kts | 287° |
| 2026-04-26 14:37 | 41.77245 | 140.81972 | 117 ft | 20 kts | 288° |
| 2026-04-26 14:37 | 41.77281 | 140.81823 | 116 ft | 15 kts | 287° |
| 2026-04-26 14:37 | 41.77312 | 140.81694 | 117 ft | 15 kts | 288° |
| 2026-04-26 14:38 | 41.77344 | 140.81564 | 113 ft | 15 kts | 289° |
| 2026-04-26 14:38 | 41.77358 | 140.81510 | 115 ft | 0 kts | 289° |
| 2026-04-26 14:38 | 41.77364 | 140.81497 | 110 ft | 4 kts | 303° |
| 2026-04-26 14:38 | 41.77417 | 140.81501 | 114 ft | 12 kts | 14° |
| 2026-04-26 14:39 | 41.77470 | 140.81521 | 114 ft | 3 kts | 18° |
| 2026-04-26 14:39 | 41.77487 | 140.81528 | 114 ft | 2 kts | 17° |
| 2026-04-26 14:39 | 41.77490 | 140.81529 | 114 ft | 0 kts | 17° |